sensor_id;sensor_type;location;lat;lon;timestamp;temperature;humidity
51500;DHT22;39101;53.478;6.158;2022-08-19T00:01:50;16.10;99.90
51500;DHT22;39101;53.478;6.158;2022-08-19T00:04:20;16.00;99.90
51500;DHT22;39101;53.478;6.158;2022-08-19T00:06:47;16.10;99.90
51500;DHT22;39101;53.478;6.158;2022-08-19T00:09:16;16.10;99.90
51500;DHT22;39101;53.478;6.158;2022-08-19T00:11:44;16.20;99.90
51500;DHT22;39101;53.478;6.158;2022-08-19T00:14:15;16.20;99.90
51500;DHT22;39101;53.478;6.158;2022-08-19T00:16:44;16.20;99.90
51500;DHT22;39101;53.478;6.158;2022-08-19T00:19:14;16.30;99.90
51500;DHT22;39101;53.478;6.158;2022-08-19T00:21:43;16.30;99.90
51500;DHT22;39101;53.478;6.158;2022-08-19T00:24:16;16.50;99.90
51500;DHT22;39101;53.478;6.158;2022-08-19T00:26:43;16.50;99.90
51500;DHT22;39101;53.478;6.158;2022-08-19T00:29:11;16.50;99.90
51500;DHT22;39101;53.478;6.158;2022-08-19T00:31:37;16.60;99.90
51500;DHT22;39101;53.478;6.158;2022-08-19T00:34:03;16.60;99.90
51500;DHT22;39101;53.478;6.158;2022-08-19T00:36:29;16.50;99.90
51500;DHT22;39101;53.478;6.158;2022-08-19T00:38:56;16.60;99.90
51500;DHT22;39101;53.478;6.158;2022-08-19T00:41:26;16.70;99.90
51500;DHT22;39101;53.478;6.158;2022-08-19T00:44:03;16.60;99.90
51500;DHT22;39101;53.478;6.158;2022-08-19T00:46:30;16.70;99.90
51500;DHT22;39101;53.478;6.158;2022-08-19T00:48:57;16.60;99.90
51500;DHT22;39101;53.478;6.158;2022-08-19T00:51:25;16.60;99.90
51500;DHT22;39101;53.478;6.158;2022-08-19T00:53:53;16.60;99.90
51500;DHT22;39101;53.478;6.158;2022-08-19T00:56:19;16.70;99.90
51500;DHT22;39101;53.478;6.158;2022-08-19T00:58:45;16.60;99.90
51500;DHT22;39101;53.478;6.158;2022-08-19T01:01:11;16.70;99.90
51500;DHT22;39101;53.478;6.158;2022-08-19T01:03:38;16.70;99.90
51500;DHT22;39101;53.478;6.158;2022-08-19T01:06:05;16.60;99.90
51500;DHT22;39101;53.478;6.158;2022-08-19T01:08:31;16.70;99.90
51500;DHT22;39101;53.478;6.158;2022-08-19T01:10:58;16.70;99.90
51500;DHT22;39101;53.478;6.158;2022-08-19T01:13:28;16.70;99.90
51500;DHT22;39101;53.478;6.158;2022-08-19T01:15:59;16.70;99.90
51500;DHT22;39101;53.478;6.158;2022-08-19T01:18:25;16.60;99.90
51500;DHT22;39101;53.478;6.158;2022-08-19T01:20:56;16.60;99.90
51500;DHT22;39101;53.478;6.158;2022-08-19T01:23:23;16.70;99.90
51500;DHT22;39101;53.478;6.158;2022-08-19T01:26:13;16.60;99.90
51500;DHT22;39101;53.478;6.158;2022-08-19T01:28:45;16.60;99.90
51500;DHT22;39101;53.478;6.158;2022-08-19T01:31:16;16.60;99.90
51500;DHT22;39101;53.478;6.158;2022-08-19T01:33:42;16.60;99.90
51500;DHT22;39101;53.478;6.158;2022-08-19T01:36:11;16.70;99.90
51500;DHT22;39101;53.478;6.158;2022-08-19T01:38:38;16.70;99.90
51500;DHT22;39101;53.478;6.158;2022-08-19T01:41:04;16.60;99.90
51500;DHT22;39101;53.478;6.158;2022-08-19T01:43:33;16.60;99.90
51500;DHT22;39101;53.478;6.158;2022-08-19T01:45:59;16.70;99.90
51500;DHT22;39101;53.478;6.158;2022-08-19T01:48:26;16.60;99.90
51500;DHT22;39101;53.478;6.158;2022-08-19T01:50:52;16.60;99.90
51500;DHT22;39101;53.478;6.158;2022-08-19T01:53:17;16.70;99.90
51500;DHT22;39101;53.478;6.158;2022-08-19T01:55:43;16.60;99.90
51500;DHT22;39101;53.478;6.158;2022-08-19T01:58:16;16.60;99.90
51500;DHT22;39101;53.478;6.158;2022-08-19T02:00:46;16.60;99.90
51500;DHT22;39101;53.478;6.158;2022-08-19T02:03:12;16.60;99.90
51500;DHT22;39101;53.478;6.158;2022-08-19T02:05:40;16.40;99.90
51500;DHT22;39101;53.478;6.158;2022-08-19T02:08:06;16.40;99.90
51500;DHT22;39101;53.478;6.158;2022-08-19T02:10:32;16.40;99.90
51500;DHT22;39101;53.478;6.158;2022-08-19T02:12:58;16.30;99.90
51500;DHT22;39101;53.478;6.158;2022-08-19T02:15:27;16.30;99.90
51500;DHT22;39101;53.478;6.158;2022-08-19T02:17:53;16.30;99.90
51500;DHT22;39101;53.478;6.158;2022-08-19T02:20:19;16.20;99.90
51500;DHT22;39101;53.478;6.158;2022-08-19T02:22:45;16.20;99.90
51500;DHT22;39101;53.478;6.158;2022-08-19T02:25:12;16.20;99.90
51500;DHT22;39101;53.478;6.158;2022-08-19T02:27:39;16.10;99.90
51500;DHT22;39101;53.478;6.158;2022-08-19T02:30:07;16.10;99.90
51500;DHT22;39101;53.478;6.158;2022-08-19T02:32:33;16.10;99.90
51500;DHT22;39101;53.478;6.158;2022-08-19T02:34:59;16.10;99.90
51500;DHT22;39101;53.478;6.158;2022-08-19T02:37:25;16.20;99.90
51500;DHT22;39101;53.478;6.158;2022-08-19T02:40:10;16.10;99.90
51500;DHT22;39101;53.478;6.158;2022-08-19T02:42:36;16.20;99.90
51500;DHT22;39101;53.478;6.158;2022-08-19T02:45:03;16.20;99.90
51500;DHT22;39101;53.478;6.158;2022-08-19T02:47:30;15.90;99.90
51500;DHT22;39101;53.478;6.158;2022-08-19T02:49:55;16.20;99.90
51500;DHT22;39101;53.478;6.158;2022-08-19T02:52:21;16.10;99.90
51500;DHT22;39101;53.478;6.158;2022-08-19T02:54:49;16.10;99.90
51500;DHT22;39101;53.478;6.158;2022-08-19T02:57:15;16.20;99.90
51500;DHT22;39101;53.478;6.158;2022-08-19T02:59:40;16.20;99.90
51500;DHT22;39101;53.478;6.158;2022-08-19T03:02:06;16.10;99.90
51500;DHT22;39101;53.478;6.158;2022-08-19T03:04:33;16.20;99.90
51500;DHT22;39101;53.478;6.158;2022-08-19T03:07:03;16.20;99.90
51500;DHT22;39101;53.478;6.158;2022-08-19T03:09:28;16.20;99.90
51500;DHT22;39101;53.478;6.158;2022-08-19T03:11:56;16.20;99.90
51500;DHT22;39101;53.478;6.158;2022-08-19T03:14:21;16.20;99.90
51500;DHT22;39101;53.478;6.158;2022-08-19T03:16:51;16.30;99.90
51500;DHT22;39101;53.478;6.158;2022-08-19T03:19:18;16.30;99.90
51500;DHT22;39101;53.478;6.158;2022-08-19T03:21:52;16.20;99.90
51500;DHT22;39101;53.478;6.158;2022-08-19T03:24:19;16.20;99.90
51500;DHT22;39101;53.478;6.158;2022-08-19T03:26:51;16.30;99.90
51500;DHT22;39101;53.478;6.158;2022-08-19T03:29:22;16.20;99.90
51500;DHT22;39101;53.478;6.158;2022-08-19T03:31:47;16.20;99.90
51500;DHT22;39101;53.478;6.158;2022-08-19T03:34:19;16.30;99.90
51500;DHT22;39101;53.478;6.158;2022-08-19T03:36:46;16.30;99.90
51500;DHT22;39101;53.478;6.158;2022-08-19T03:39:14;16.20;99.90
51500;DHT22;39101;53.478;6.158;2022-08-19T03:41:43;16.20;99.90
51500;DHT22;39101;53.478;6.158;2022-08-19T03:44:09;16.20;99.90
51500;DHT22;39101;53.478;6.158;2022-08-19T03:46:35;16.20;99.90
51500;DHT22;39101;53.478;6.158;2022-08-19T03:49:03;16.20;99.90
51500;DHT22;39101;53.478;6.158;2022-08-19T03:51:35;16.20;99.90
51500;DHT22;39101;53.478;6.158;2022-08-19T03:54:07;16.20;99.90
51500;DHT22;39101;53.478;6.158;2022-08-19T03:56:34;16.20;99.90
51500;DHT22;39101;53.478;6.158;2022-08-19T03:59:01;16.10;99.90
51500;DHT22;39101;53.478;6.158;2022-08-19T04:01:28;16.10;99.90
51500;DHT22;39101;53.478;6.158;2022-08-19T04:03:59;16.10;99.90
51500;DHT22;39101;53.478;6.158;2022-08-19T04:06:31;16.10;99.90
51500;DHT22;39101;53.478;6.158;2022-08-19T04:09:02;16.20;99.90
51500;DHT22;39101;53.478;6.158;2022-08-19T04:11:34;16.20;99.90
51500;DHT22;39101;53.478;6.158;2022-08-19T04:14:00;16.20;99.90
51500;DHT22;39101;53.478;6.158;2022-08-19T04:16:30;16.00;99.90
51500;DHT22;39101;53.478;6.158;2022-08-19T04:18:59;16.00;99.90
51500;DHT22;39101;53.478;6.158;2022-08-19T04:21:26;16.10;99.90
51500;DHT22;39101;53.478;6.158;2022-08-19T04:23:56;16.00;99.90
51500;DHT22;39101;53.478;6.158;2022-08-19T04:26:33;16.10;99.90
51500;DHT22;39101;53.478;6.158;2022-08-19T04:29:04;16.00;99.90
51500;DHT22;39101;53.478;6.158;2022-08-19T04:31:32;16.00;99.90
51500;DHT22;39101;53.478;6.158;2022-08-19T04:34:03;15.90;99.90
51500;DHT22;39101;53.478;6.158;2022-08-19T04:36:31;15.90;99.90
51500;DHT22;39101;53.478;6.158;2022-08-19T04:39:02;15.90;99.90
51500;DHT22;39101;53.478;6.158;2022-08-19T04:41:28;16.00;99.90
51500;DHT22;39101;53.478;6.158;2022-08-19T04:44:15;16.10;99.90
51500;DHT22;39101;53.478;6.158;2022-08-19T04:46:47;16.10;99.90
51500;DHT22;39101;53.478;6.158;2022-08-19T04:49:14;16.10;99.90
51500;DHT22;39101;53.478;6.158;2022-08-19T04:51:42;16.00;99.90
51500;DHT22;39101;53.478;6.158;2022-08-19T04:54:08;16.10;99.90
51500;DHT22;39101;53.478;6.158;2022-08-19T04:56:34;16.10;99.90
51500;DHT22;39101;53.478;6.158;2022-08-19T04:59:00;16.20;99.90
51500;DHT22;39101;53.478;6.158;2022-08-19T05:01:32;16.30;99.90
51500;DHT22;39101;53.478;6.158;2022-08-19T05:04:00;16.30;99.90
51500;DHT22;39101;53.478;6.158;2022-08-19T05:06:31;16.30;99.90
51500;DHT22;39101;53.478;6.158;2022-08-19T05:09:05;16.30;99.90
51500;DHT22;39101;53.478;6.158;2022-08-19T05:11:36;16.40;99.90
51500;DHT22;39101;53.478;6.158;2022-08-19T05:14:04;16.40;99.90
51500;DHT22;39101;53.478;6.158;2022-08-19T05:16:32;16.50;99.90
51500;DHT22;39101;53.478;6.158;2022-08-19T05:18:58;16.60;99.90
51500;DHT22;39101;53.478;6.158;2022-08-19T05:21:44;16.50;99.90
51500;DHT22;39101;53.478;6.158;2022-08-19T05:24:29;16.60;99.90
51500;DHT22;39101;53.478;6.158;2022-08-19T05:26:57;16.50;99.90
51500;DHT22;39101;53.478;6.158;2022-08-19T05:29:25;16.70;99.90
51500;DHT22;39101;53.478;6.158;2022-08-19T05:31:51;16.60;99.90
51500;DHT22;39101;53.478;6.158;2022-08-19T05:34:20;16.60;99.90
51500;DHT22;39101;53.478;6.158;2022-08-19T05:36:54;16.70;99.90
51500;DHT22;39101;53.478;6.158;2022-08-19T05:39:21;16.80;99.90
51500;DHT22;39101;53.478;6.158;2022-08-19T05:41:52;16.70;99.90
51500;DHT22;39101;53.478;6.158;2022-08-19T05:44:20;16.80;99.90
51500;DHT22;39101;53.478;6.158;2022-08-19T05:46:49;16.90;99.90
51500;DHT22;39101;53.478;6.158;2022-08-19T05:49:20;16.80;99.90
51500;DHT22;39101;53.478;6.158;2022-08-19T05:51:47;16.90;99.90
51500;DHT22;39101;53.478;6.158;2022-08-19T05:54:29;16.90;99.90
51500;DHT22;39101;53.478;6.158;2022-08-19T05:56:56;17.00;99.90
51500;DHT22;39101;53.478;6.158;2022-08-19T05:59:22;17.10;99.90
51500;DHT22;39101;53.478;6.158;2022-08-19T06:01:51;17.10;99.90
51500;DHT22;39101;53.478;6.158;2022-08-19T06:04:19;17.10;99.90
51500;DHT22;39101;53.478;6.158;2022-08-19T06:06:46;17.10;99.90
51500;DHT22;39101;53.478;6.158;2022-08-19T06:09:12;17.20;99.90
51500;DHT22;39101;53.478;6.158;2022-08-19T06:11:42;17.20;99.90
51500;DHT22;39101;53.478;6.158;2022-08-19T06:14:15;17.30;99.90
51500;DHT22;39101;53.478;6.158;2022-08-19T06:16:44;17.30;99.90
51500;DHT22;39101;53.478;6.158;2022-08-19T06:19:13;17.40;99.90
51500;DHT22;39101;53.478;6.158;2022-08-19T06:21:42;17.50;99.90
51500;DHT22;39101;53.478;6.158;2022-08-19T06:24:10;17.50;99.90
51500;DHT22;39101;53.478;6.158;2022-08-19T06:26:38;17.60;99.90
51500;DHT22;39101;53.478;6.158;2022-08-19T06:29:06;17.70;99.90
51500;DHT22;39101;53.478;6.158;2022-08-19T06:31:40;17.70;99.90
51500;DHT22;39101;53.478;6.158;2022-08-19T06:34:07;17.70;99.90
51500;DHT22;39101;53.478;6.158;2022-08-19T06:36:36;17.70;99.90
51500;DHT22;39101;53.478;6.158;2022-08-19T06:39:11;17.80;99.90
51500;DHT22;39101;53.478;6.158;2022-08-19T06:41:39;17.90;99.90
51500;DHT22;39101;53.478;6.158;2022-08-19T06:44:06;18.00;99.90
51500;DHT22;39101;53.478;6.158;2022-08-19T06:46:32;18.00;99.90
51500;DHT22;39101;53.478;6.158;2022-08-19T06:48:58;18.10;99.90
51500;DHT22;39101;53.478;6.158;2022-08-19T06:51:25;18.10;99.90
51500;DHT22;39101;53.478;6.158;2022-08-19T06:53:54;18.10;99.90
51500;DHT22;39101;53.478;6.158;2022-08-19T06:56:25;18.10;99.90
51500;DHT22;39101;53.478;6.158;2022-08-19T06:58:58;18.20;99.90
51500;DHT22;39101;53.478;6.158;2022-08-19T07:01:24;18.20;99.90
51500;DHT22;39101;53.478;6.158;2022-08-19T07:03:49;18.30;99.90
51500;DHT22;39101;53.478;6.158;2022-08-19T07:06:16;18.40;99.90
51500;DHT22;39101;53.478;6.158;2022-08-19T07:08:44;18.50;99.90
51500;DHT22;39101;53.478;6.158;2022-08-19T07:11:14;18.50;99.90
51500;DHT22;39101;53.478;6.158;2022-08-19T07:13:40;18.60;99.90
51500;DHT22;39101;53.478;6.158;2022-08-19T07:16:13;18.50;99.90
51500;DHT22;39101;53.478;6.158;2022-08-19T07:18:39;18.60;99.90
51500;DHT22;39101;53.478;6.158;2022-08-19T07:21:10;18.70;99.90
51500;DHT22;39101;53.478;6.158;2022-08-19T07:23:39;18.60;99.90
51500;DHT22;39101;53.478;6.158;2022-08-19T07:26:14;18.80;99.90
51500;DHT22;39101;53.478;6.158;2022-08-19T07:28:42;18.90;99.90
51500;DHT22;39101;53.478;6.158;2022-08-19T07:31:11;18.80;99.90
51500;DHT22;39101;53.478;6.158;2022-08-19T07:33:46;18.90;99.90
51500;DHT22;39101;53.478;6.158;2022-08-19T07:36:14;19.10;99.90
51500;DHT22;39101;53.478;6.158;2022-08-19T07:38:43;19.10;99.90
51500;DHT22;39101;53.478;6.158;2022-08-19T07:41:16;19.20;99.90
51500;DHT22;39101;53.478;6.158;2022-08-19T07:43:42;19.20;99.90
51500;DHT22;39101;53.478;6.158;2022-08-19T07:46:10;19.30;99.90
51500;DHT22;39101;53.478;6.158;2022-08-19T07:48:36;19.40;99.90
51500;DHT22;39101;53.478;6.158;2022-08-19T07:51:04;19.50;99.90
51500;DHT22;39101;53.478;6.158;2022-08-19T07:53:31;19.50;99.90
51500;DHT22;39101;53.478;6.158;2022-08-19T07:56:04;19.70;99.90
51500;DHT22;39101;53.478;6.158;2022-08-19T07:58:32;19.60;99.90
51500;DHT22;39101;53.478;6.158;2022-08-19T08:00:59;19.80;99.90
51500;DHT22;39101;53.478;6.158;2022-08-19T08:03:28;19.90;99.90
51500;DHT22;39101;53.478;6.158;2022-08-19T08:06:14;19.90;99.90
51500;DHT22;39101;53.478;6.158;2022-08-19T08:09:02;20.00;99.90
51500;DHT22;39101;53.478;6.158;2022-08-19T08:11:50;20.10;99.90
51500;DHT22;39101;53.478;6.158;2022-08-19T08:14:25;20.10;99.90
51500;DHT22;39101;53.478;6.158;2022-08-19T08:16:53;20.20;99.90
51500;DHT22;39101;53.478;6.158;2022-08-19T08:19:22;20.30;99.90
51500;DHT22;39101;53.478;6.158;2022-08-19T08:21:50;20.40;99.90
51500;DHT22;39101;53.478;6.158;2022-08-19T08:24:17;20.40;99.90
51500;DHT22;39101;53.478;6.158;2022-08-19T08:26:43;20.50;99.90
51500;DHT22;39101;53.478;6.158;2022-08-19T08:29:10;20.50;99.90
51500;DHT22;39101;53.478;6.158;2022-08-19T08:31:58;20.50;99.90
51500;DHT22;39101;53.478;6.158;2022-08-19T08:34:24;20.60;99.90
51500;DHT22;39101;53.478;6.158;2022-08-19T08:36:50;20.60;99.90
51500;DHT22;39101;53.478;6.158;2022-08-19T08:39:20;20.60;99.90
51500;DHT22;39101;53.478;6.158;2022-08-19T08:42:23;20.70;99.90
51500;DHT22;39101;53.478;6.158;2022-08-19T08:45:10;20.80;99.90
51500;DHT22;39101;53.478;6.158;2022-08-19T08:47:43;20.80;99.90
51500;DHT22;39101;53.478;6.158;2022-08-19T08:50:29;20.80;99.90
51500;DHT22;39101;53.478;6.158;2022-08-19T08:53:06;20.90;99.90
51500;DHT22;39101;53.478;6.158;2022-08-19T08:55:32;21.00;99.90
51500;DHT22;39101;53.478;6.158;2022-08-19T08:58:46;21.10;99.90
51500;DHT22;39101;53.478;6.158;2022-08-19T09:01:09;21.10;99.90
51500;DHT22;39101;53.478;6.158;2022-08-19T09:03:53;21.20;99.90
51500;DHT22;39101;53.478;6.158;2022-08-19T09:09:20;21.30;99.90
51500;DHT22;39101;53.478;6.158;2022-08-19T09:12:10;21.30;99.90
51500;DHT22;39101;53.478;6.158;2022-08-19T09:14:49;21.40;99.90
51500;DHT22;39101;53.478;6.158;2022-08-19T09:17:19;21.40;99.90
51500;DHT22;39101;53.478;6.158;2022-08-19T09:19:58;21.40;99.90
51500;DHT22;39101;53.478;6.158;2022-08-19T09:22:25;21.50;99.90
51500;DHT22;39101;53.478;6.158;2022-08-19T09:24:54;21.60;99.90
51500;DHT22;39101;53.478;6.158;2022-08-19T09:27:21;21.60;99.90
51500;DHT22;39101;53.478;6.158;2022-08-19T09:29:50;21.60;99.90
51500;DHT22;39101;53.478;6.158;2022-08-19T09:32:16;21.70;99.90
51500;DHT22;39101;53.478;6.158;2022-08-19T09:34:44;21.70;99.90
51500;DHT22;39101;53.478;6.158;2022-08-19T09:37:09;21.80;99.90
51500;DHT22;39101;53.478;6.158;2022-08-19T09:39:38;21.80;99.90
51500;DHT22;39101;53.478;6.158;2022-08-19T09:42:04;21.80;99.90
51500;DHT22;39101;53.478;6.158;2022-08-19T09:44:34;21.90;99.90
51500;DHT22;39101;53.478;6.158;2022-08-19T09:47:00;21.90;99.90
51500;DHT22;39101;53.478;6.158;2022-08-19T09:49:27;22.00;99.90
51500;DHT22;39101;53.478;6.158;2022-08-19T09:51:53;22.00;99.90
51500;DHT22;39101;53.478;6.158;2022-08-19T09:54:24;22.00;99.90
51500;DHT22;39101;53.478;6.158;2022-08-19T09:56:49;22.10;99.90
51500;DHT22;39101;53.478;6.158;2022-08-19T09:59:16;22.10;99.90
51500;DHT22;39101;53.478;6.158;2022-08-19T10:01:42;22.20;99.90
51500;DHT22;39101;53.478;6.158;2022-08-19T10:04:08;22.20;99.90
51500;DHT22;39101;53.478;6.158;2022-08-19T10:06:35;22.30;99.90
51500;DHT22;39101;53.478;6.158;2022-08-19T10:09:08;22.30;99.90
51500;DHT22;39101;53.478;6.158;2022-08-19T10:11:34;22.40;99.90
51500;DHT22;39101;53.478;6.158;2022-08-19T10:14:01;22.50;99.90
51500;DHT22;39101;53.478;6.158;2022-08-19T10:16:27;22.40;99.90
51500;DHT22;39101;53.478;6.158;2022-08-19T10:18:54;22.50;99.90
51500;DHT22;39101;53.478;6.158;2022-08-19T10:21:29;22.50;99.90
51500;DHT22;39101;53.478;6.158;2022-08-19T10:23:57;22.50;99.90
51500;DHT22;39101;53.478;6.158;2022-08-19T10:26:26;22.60;99.90
51500;DHT22;39101;53.478;6.158;2022-08-19T10:28:56;22.60;99.90
51500;DHT22;39101;53.478;6.158;2022-08-19T10:31:28;22.70;99.90
51500;DHT22;39101;53.478;6.158;2022-08-19T10:33:56;22.60;99.90
51500;DHT22;39101;53.478;6.158;2022-08-19T10:36:25;22.60;99.90
51500;DHT22;39101;53.478;6.158;2022-08-19T10:38:53;22.60;99.90
51500;DHT22;39101;53.478;6.158;2022-08-19T10:41:22;22.60;99.90
51500;DHT22;39101;53.478;6.158;2022-08-19T10:43:51;22.50;99.90
51500;DHT22;39101;53.478;6.158;2022-08-19T10:46:21;22.50;99.90
51500;DHT22;39101;53.478;6.158;2022-08-19T10:48:49;22.30;99.90
51500;DHT22;39101;53.478;6.158;2022-08-19T10:51:15;22.40;99.90
51500;DHT22;39101;53.478;6.158;2022-08-19T10:54:00;22.40;99.90
51500;DHT22;39101;53.478;6.158;2022-08-19T10:56:27;22.20;99.90
51500;DHT22;39101;53.478;6.158;2022-08-19T10:59:12;22.10;99.90
51500;DHT22;39101;53.478;6.158;2022-08-19T11:01:41;22.10;99.90
51500;DHT22;39101;53.478;6.158;2022-08-19T11:04:10;22.10;99.90
51500;DHT22;39101;53.478;6.158;2022-08-19T11:06:37;22.00;99.90
51500;DHT22;39101;53.478;6.158;2022-08-19T11:09:04;22.00;99.90
51500;DHT22;39101;53.478;6.158;2022-08-19T11:11:31;21.90;99.90
51500;DHT22;39101;53.478;6.158;2022-08-19T11:13:58;21.90;99.90
51500;DHT22;39101;53.478;6.158;2022-08-19T11:16:25;22.10;99.90
51500;DHT22;39101;53.478;6.158;2022-08-19T11:18:57;22.00;99.90
51500;DHT22;39101;53.478;6.158;2022-08-19T11:21:31;22.10;99.90
51500;DHT22;39101;53.478;6.158;2022-08-19T11:24:04;22.10;99.90
51500;DHT22;39101;53.478;6.158;2022-08-19T11:26:32;22.10;99.90
51500;DHT22;39101;53.478;6.158;2022-08-19T11:29:00;22.20;99.90
51500;DHT22;39101;53.478;6.158;2022-08-19T11:31:32;22.20;99.90
51500;DHT22;39101;53.478;6.158;2022-08-19T11:34:01;22.20;99.90
51500;DHT22;39101;53.478;6.158;2022-08-19T11:36:28;22.20;99.90
51500;DHT22;39101;53.478;6.158;2022-08-19T11:38:54;22.10;99.90
51500;DHT22;39101;53.478;6.158;2022-08-19T11:41:21;22.20;99.90
51500;DHT22;39101;53.478;6.158;2022-08-19T11:43:49;22.10;99.90
51500;DHT22;39101;53.478;6.158;2022-08-19T11:46:16;22.10;99.90
51500;DHT22;39101;53.478;6.158;2022-08-19T11:48:48;22.10;99.90
51500;DHT22;39101;53.478;6.158;2022-08-19T11:51:20;22.10;99.90
51500;DHT22;39101;53.478;6.158;2022-08-19T11:53:47;22.10;99.90
51500;DHT22;39101;53.478;6.158;2022-08-19T11:56:13;22.10;99.90
51500;DHT22;39101;53.478;6.158;2022-08-19T11:58:41;22.00;99.90
51500;DHT22;39101;53.478;6.158;2022-08-19T12:01:08;22.00;99.90
51500;DHT22;39101;53.478;6.158;2022-08-19T12:03:36;22.00;99.90
51500;DHT22;39101;53.478;6.158;2022-08-19T12:06:10;22.00;99.90
51500;DHT22;39101;53.478;6.158;2022-08-19T12:08:38;22.00;99.90
51500;DHT22;39101;53.478;6.158;2022-08-19T12:11:04;22.00;99.90
51500;DHT22;39101;53.478;6.158;2022-08-19T12:13:31;22.00;99.90
51500;DHT22;39101;53.478;6.158;2022-08-19T12:15:57;22.00;99.90
51500;DHT22;39101;53.478;6.158;2022-08-19T12:18:27;22.00;99.90
51500;DHT22;39101;53.478;6.158;2022-08-19T12:20:53;22.00;99.90
51500;DHT22;39101;53.478;6.158;2022-08-19T12:23:23;22.00;99.90
51500;DHT22;39101;53.478;6.158;2022-08-19T12:25:49;22.00;99.90
51500;DHT22;39101;53.478;6.158;2022-08-19T12:28:22;22.10;99.90
51500;DHT22;39101;53.478;6.158;2022-08-19T12:30:49;22.10;99.90
51500;DHT22;39101;53.478;6.158;2022-08-19T12:33:21;22.10;99.90
51500;DHT22;39101;53.478;6.158;2022-08-19T12:35:52;22.10;99.90
51500;DHT22;39101;53.478;6.158;2022-08-19T12:38:19;22.10;99.90
51500;DHT22;39101;53.478;6.158;2022-08-19T12:40:46;22.10;99.90
51500;DHT22;39101;53.478;6.158;2022-08-19T12:43:12;22.20;99.90
51500;DHT22;39101;53.478;6.158;2022-08-19T12:45:39;22.10;99.90
51500;DHT22;39101;53.478;6.158;2022-08-19T12:48:05;22.30;99.90
51500;DHT22;39101;53.478;6.158;2022-08-19T12:50:31;22.40;99.90
51500;DHT22;39101;53.478;6.158;2022-08-19T12:52:58;22.40;99.90
51500;DHT22;39101;53.478;6.158;2022-08-19T12:55:25;22.40;99.90
51500;DHT22;39101;53.478;6.158;2022-08-19T12:57:51;22.40;99.90
51500;DHT22;39101;53.478;6.158;2022-08-19T13:00:19;22.40;99.90
51500;DHT22;39101;53.478;6.158;2022-08-19T13:02:51;22.40;99.90
51500;DHT22;39101;53.478;6.158;2022-08-19T13:05:22;22.40;99.90
51500;DHT22;39101;53.478;6.158;2022-08-19T13:07:50;22.30;99.90
51500;DHT22;39101;53.478;6.158;2022-08-19T13:10:19;22.40;99.90
51500;DHT22;39101;53.478;6.158;2022-08-19T13:12:47;22.30;99.90
51500;DHT22;39101;53.478;6.158;2022-08-19T13:15:15;22.30;99.90
51500;DHT22;39101;53.478;6.158;2022-08-19T13:17:46;22.40;99.90
51500;DHT22;39101;53.478;6.158;2022-08-19T13:20:15;22.20;99.90
51500;DHT22;39101;53.478;6.158;2022-08-19T13:22:42;22.30;99.90
51500;DHT22;39101;53.478;6.158;2022-08-19T13:25:08;22.30;99.90
51500;DHT22;39101;53.478;6.158;2022-08-19T13:27:35;22.20;99.90
51500;DHT22;39101;53.478;6.158;2022-08-19T13:30:04;22.20;99.90
51500;DHT22;39101;53.478;6.158;2022-08-19T13:32:49;22.10;99.90
51500;DHT22;39101;53.478;6.158;2022-08-19T13:35:33;22.10;99.90
51500;DHT22;39101;53.478;6.158;2022-08-19T13:38:02;22.10;99.90
51500;DHT22;39101;53.478;6.158;2022-08-19T13:40:31;22.20;99.90
51500;DHT22;39101;53.478;6.158;2022-08-19T13:43:01;22.20;99.90
51500;DHT22;39101;53.478;6.158;2022-08-19T13:45:31;22.20;99.90
51500;DHT22;39101;53.478;6.158;2022-08-19T13:48:01;22.30;99.90
51500;DHT22;39101;53.478;6.158;2022-08-19T13:50:30;22.20;99.90
51500;DHT22;39101;53.478;6.158;2022-08-19T13:52:56;22.10;99.90
51500;DHT22;39101;53.478;6.158;2022-08-19T13:55:24;22.20;99.90
51500;DHT22;39101;53.478;6.158;2022-08-19T13:57:58;22.10;99.90
51500;DHT22;39101;53.478;6.158;2022-08-19T14:00:29;22.20;99.90
51500;DHT22;39101;53.478;6.158;2022-08-19T14:02:56;22.30;99.90
51500;DHT22;39101;53.478;6.158;2022-08-19T14:05:24;22.20;99.90
51500;DHT22;39101;53.478;6.158;2022-08-19T14:07:51;22.30;99.90
51500;DHT22;39101;53.478;6.158;2022-08-19T14:10:19;22.30;99.90
51500;DHT22;39101;53.478;6.158;2022-08-19T14:12:45;22.30;99.90
51500;DHT22;39101;53.478;6.158;2022-08-19T14:15:11;22.30;99.90
51500;DHT22;39101;53.478;6.158;2022-08-19T14:17:57;22.40;99.90
51500;DHT22;39101;53.478;6.158;2022-08-19T14:20:23;22.30;99.90
51500;DHT22;39101;53.478;6.158;2022-08-19T14:22:49;22.30;99.90
51500;DHT22;39101;53.478;6.158;2022-08-19T14:25:20;22.30;99.90
51500;DHT22;39101;53.478;6.158;2022-08-19T14:27:48;22.20;99.90
51500;DHT22;39101;53.478;6.158;2022-08-19T14:30:19;22.30;99.90
51500;DHT22;39101;53.478;6.158;2022-08-19T14:32:45;22.30;99.90
51500;DHT22;39101;53.478;6.158;2022-08-19T14:35:14;22.40;99.90
51500;DHT22;39101;53.478;6.158;2022-08-19T14:37:41;22.30;99.90
51500;DHT22;39101;53.478;6.158;2022-08-19T14:40:09;22.40;99.90
51500;DHT22;39101;53.478;6.158;2022-08-19T14:42:35;22.40;99.90
51500;DHT22;39101;53.478;6.158;2022-08-19T14:45:01;22.40;99.90
51500;DHT22;39101;53.478;6.158;2022-08-19T14:47:27;22.30;99.90
51500;DHT22;39101;53.478;6.158;2022-08-19T14:49:53;22.50;99.90
51500;DHT22;39101;53.478;6.158;2022-08-19T14:52:19;22.40;99.90
51500;DHT22;39101;53.478;6.158;2022-08-19T14:54:46;22.30;99.90
51500;DHT22;39101;53.478;6.158;2022-08-19T14:57:13;22.30;99.90
51500;DHT22;39101;53.478;6.158;2022-08-19T14:59:41;22.20;99.90
51500;DHT22;39101;53.478;6.158;2022-08-19T15:02:11;22.20;99.90
51500;DHT22;39101;53.478;6.158;2022-08-19T15:04:37;22.20;99.90
51500;DHT22;39101;53.478;6.158;2022-08-19T15:07:03;22.30;99.90
51500;DHT22;39101;53.478;6.158;2022-08-19T15:09:31;22.30;99.90
51500;DHT22;39101;53.478;6.158;2022-08-19T15:11:56;22.30;99.90
51500;DHT22;39101;53.478;6.158;2022-08-19T15:14:29;22.30;99.90
51500;DHT22;39101;53.478;6.158;2022-08-19T15:17:03;22.30;99.90
51500;DHT22;39101;53.478;6.158;2022-08-19T15:19:31;22.40;99.90
51500;DHT22;39101;53.478;6.158;2022-08-19T15:21:57;22.50;99.90
51500;DHT22;39101;53.478;6.158;2022-08-19T15:24:23;22.50;99.90
51500;DHT22;39101;53.478;6.158;2022-08-19T15:26:56;22.50;99.90
51500;DHT22;39101;53.478;6.158;2022-08-19T15:29:22;22.40;99.90
51500;DHT22;39101;53.478;6.158;2022-08-19T15:31:52;22.40;99.90
51500;DHT22;39101;53.478;6.158;2022-08-19T15:34:21;22.20;99.90
51500;DHT22;39101;53.478;6.158;2022-08-19T15:36:48;22.40;99.90
51500;DHT22;39101;53.478;6.158;2022-08-19T15:39:14;22.40;99.90
51500;DHT22;39101;53.478;6.158;2022-08-19T15:41:41;22.30;99.90
51500;DHT22;39101;53.478;6.158;2022-08-19T15:44:11;22.40;99.90
51500;DHT22;39101;53.478;6.158;2022-08-19T15:46:39;22.40;99.90